FRS123 EDMH-ETHL
Flight info
| Callsign | FRS123 |
|---|---|
| Flight time | 0h 30m |
| Altitude | 3500 |
| Route | DCT |
| Aircraft | PA24/L-SDGRY/S |
Departure
| Time | 2026-05-01 13:33 |
|---|---|
| Airport | Gunzenhausen-Reutberg Airfield (EDMH) |
Arrival
| Time | 2026-05-01 14:03 |
|---|---|
| Airport | Laupheim Air Base (ETHL) |
| Time | Latitude | Longitude | Altitude | Speed | Heading |
|---|---|---|---|---|---|
| 2026-05-01 13:23 | 49.11251 | 10.78189 | 1588 ft | 0 kts | 188° |
| 2026-05-01 13:31 | 49.11223 | 10.78199 | 1587 ft | 3 kts | 58° |
| 2026-05-01 13:32 | 49.11224 | 10.78200 | 1587 ft | 0 kts | 57° |
| 2026-05-01 13:33 | 49.11712 | 10.79178 | 1938 ft | 76 kts | 54° |
| 2026-05-01 13:33 | 49.12533 | 10.80116 | 2602 ft | 75 kts | 36° |
| 2026-05-01 13:34 | 49.12274 | 10.79148 | 2935 ft | 99 kts | 199° |
| 2026-05-01 13:34 | 49.11018 | 10.78017 | 3385 ft | 112 kts | 204° |
| 2026-05-01 13:35 | 49.09872 | 10.76446 | 3787 ft | 115 kts | 221° |
| 2026-05-01 13:35 | 49.09308 | 10.75497 | 3861 ft | 131 kts | 222° |
| 2026-05-01 13:35 | 49.08006 | 10.73187 | 3904 ft | 150 kts | 227° |
| 2026-05-01 13:36 | 49.07356 | 10.71926 | 3886 ft | 152 kts | 226° |
| 2026-05-01 13:36 | 49.06682 | 10.70645 | 3804 ft | 162 kts | 227° |
| 2026-05-01 13:36 | 49.05144 | 10.68219 | 3915 ft | 160 kts | 217° |
| 2026-05-01 13:37 | 49.04265 | 10.67051 | 3627 ft | 174 kts | 217° |
| 2026-05-01 13:37 | 49.03253 | 10.66125 | 3549 ft | 167 kts | 203° |
| 2026-05-01 13:37 | 49.02253 | 10.65245 | 3547 ft | 166 kts | 205° |
| 2026-05-01 13:37 | 49.01276 | 10.64365 | 3529 ft | 160 kts | 202° |
| 2026-05-01 13:38 | 48.99389 | 10.62548 | 3521 ft | 165 kts | 210° |
| 2026-05-01 13:38 | 48.98429 | 10.61610 | 3517 ft | 164 kts | 202° |
| 2026-05-01 13:38 | 48.97462 | 10.60697 | 3520 ft | 164 kts | 207° |
| 2026-05-01 13:39 | 48.96503 | 10.59806 | 3521 ft | 160 kts | 205° |
| 2026-05-01 13:39 | 48.95564 | 10.58922 | 3527 ft | 164 kts | 207° |
| 2026-05-01 13:39 | 48.94571 | 10.58044 | 3515 ft | 165 kts | 206° |
| 2026-05-01 13:39 | 48.93625 | 10.57110 | 3503 ft | 161 kts | 208° |
| 2026-05-01 13:40 | 48.92704 | 10.56146 | 3502 ft | 160 kts | 211° |
| 2026-05-01 13:40 | 48.91762 | 10.55249 | 3493 ft | 160 kts | 200° |
| 2026-05-01 13:40 | 48.90812 | 10.54432 | 3521 ft | 157 kts | 206° |
| 2026-05-01 13:40 | 48.89858 | 10.53574 | 3505 ft | 161 kts | 204° |
| 2026-05-01 13:41 | 48.88933 | 10.52707 | 3510 ft | 158 kts | 211° |
| 2026-05-01 13:41 | 48.88255 | 10.52065 | 3483 ft | 157 kts | 206° |
| 2026-05-01 13:41 | 48.87338 | 10.51198 | 3503 ft | 158 kts | 210° |
| 2026-05-01 13:41 | 48.86416 | 10.50271 | 3510 ft | 158 kts | 205° |
| 2026-05-01 13:42 | 48.85687 | 10.49069 | 3497 ft | 162 kts | 239° |
| 2026-05-01 13:42 | 48.85208 | 10.47449 | 3509 ft | 170 kts | 243° |
| 2026-05-01 13:42 | 48.84732 | 10.45793 | 3515 ft | 171 kts | 242° |
| 2026-05-01 13:42 | 48.84310 | 10.44168 | 3516 ft | 169 kts | 245° |
| 2026-05-01 13:43 | 48.83881 | 10.42505 | 3506 ft | 170 kts | 244° |
| 2026-05-01 13:43 | 48.83406 | 10.40915 | 3505 ft | 166 kts | 236° |
| 2026-05-01 13:43 | 48.82831 | 10.39402 | 3497 ft | 170 kts | 229° |
| 2026-05-01 13:43 | 48.82285 | 10.37837 | 3511 ft | 167 kts | 240° |
| 2026-05-01 13:44 | 48.81713 | 10.36327 | 3503 ft | 165 kts | 236° |
| 2026-05-01 13:44 | 48.81139 | 10.34807 | 3492 ft | 168 kts | 237° |
| 2026-05-01 13:44 | 48.80561 | 10.33252 | 3502 ft | 167 kts | 237° |
| 2026-05-01 13:44 | 48.79980 | 10.31737 | 3502 ft | 166 kts | 237° |
| 2026-05-01 13:45 | 48.79396 | 10.30185 | 3492 ft | 169 kts | 236° |
| 2026-05-01 13:45 | 48.78805 | 10.28659 | 3490 ft | 167 kts | 234° |
| 2026-05-01 13:45 | 48.78227 | 10.27140 | 3496 ft | 167 kts | 238° |
| 2026-05-01 13:45 | 48.77660 | 10.25597 | 3489 ft | 169 kts | 234° |
| 2026-05-01 13:46 | 48.77075 | 10.24049 | 3494 ft | 170 kts | 236° |
| 2026-05-01 13:46 | 48.76490 | 10.22478 | 3493 ft | 171 kts | 235° |
| 2026-05-01 13:46 | 48.75865 | 10.20951 | 3486 ft | 168 kts | 233° |
| 2026-05-01 13:46 | 48.75287 | 10.19426 | 3486 ft | 165 kts | 237° |
| 2026-05-01 13:47 | 48.74564 | 10.18108 | 3473 ft | 164 kts | 208° |
| 2026-05-01 13:47 | 48.73505 | 10.17673 | 3488 ft | 154 kts | 173° |
| 2026-05-01 13:47 | 48.72462 | 10.17683 | 3501 ft | 150 kts | 170° |
| 2026-05-01 13:47 | 48.71430 | 10.17984 | 3490 ft | 149 kts | 162° |
| 2026-05-01 13:48 | 48.70418 | 10.18213 | 3476 ft | 148 kts | 162° |
| 2026-05-01 13:48 | 48.69407 | 10.18448 | 3475 ft | 147 kts | 163° |
| 2026-05-01 13:48 | 48.68416 | 10.18674 | 3477 ft | 141 kts | 163° |
| 2026-05-01 13:48 | 48.67457 | 10.18920 | 3480 ft | 140 kts | 163° |
| 2026-05-01 13:49 | 48.66501 | 10.19177 | 3479 ft | 138 kts | 164° |
| 2026-05-01 13:49 | 48.65562 | 10.19392 | 3480 ft | 136 kts | 163° |
| 2026-05-01 13:49 | 48.64632 | 10.19737 | 3482 ft | 139 kts | 160° |
| 2026-05-01 13:49 | 48.63670 | 10.20012 | 3484 ft | 141 kts | 173° |
| 2026-05-01 13:50 | 48.62739 | 10.19468 | 3482 ft | 151 kts | 208° |
| 2026-05-01 13:50 | 48.61873 | 10.18577 | 3475 ft | 153 kts | 210° |
| 2026-05-01 13:50 | 48.60996 | 10.17637 | 3475 ft | 155 kts | 209° |
| 2026-05-01 13:50 | 48.60112 | 10.16685 | 3475 ft | 159 kts | 210° |
| 2026-05-01 13:51 | 48.59210 | 10.15740 | 3479 ft | 157 kts | 211° |
| 2026-05-01 13:51 | 48.58312 | 10.14818 | 3477 ft | 156 kts | 209° |
| 2026-05-01 13:51 | 48.57407 | 10.13884 | 3478 ft | 158 kts | 210° |
| 2026-05-01 13:51 | 48.56512 | 10.12951 | 3479 ft | 159 kts | 210° |
| 2026-05-01 13:52 | 48.55600 | 10.12008 | 3475 ft | 159 kts | 210° |
| 2026-05-01 13:52 | 48.54726 | 10.11031 | 3471 ft | 158 kts | 212° |
| 2026-05-01 13:52 | 48.53852 | 10.10046 | 3473 ft | 155 kts | 213° |
| 2026-05-01 13:52 | 48.52978 | 10.09115 | 3474 ft | 154 kts | 211° |
| 2026-05-01 13:53 | 48.52082 | 10.08190 | 3471 ft | 158 kts | 209° |
| 2026-05-01 13:53 | 48.50251 | 10.06267 | 3339 ft | 154 kts | 205° |
| 2026-05-01 13:53 | 48.49335 | 10.05435 | 3126 ft | 160 kts | 207° |
| 2026-05-01 13:54 | 48.48394 | 10.04510 | 2992 ft | 159 kts | 210° |
| 2026-05-01 13:54 | 48.47514 | 10.03681 | 3006 ft | 145 kts | 206° |
| 2026-05-01 13:54 | 48.46687 | 10.02892 | 3011 ft | 138 kts | 207° |
| 2026-05-01 13:54 | 48.45856 | 10.02100 | 3012 ft | 142 kts | 206° |
| 2026-05-01 13:55 | 48.45047 | 10.01300 | 3010 ft | 137 kts | 207° |
| 2026-05-01 13:55 | 48.44265 | 10.00514 | 3007 ft | 136 kts | 208° |
| 2026-05-01 13:55 | 48.43474 | 9.99745 | 3075 ft | 134 kts | 207° |
| 2026-05-01 13:55 | 48.42696 | 9.99000 | 3079 ft | 132 kts | 206° |
| 2026-05-01 13:56 | 48.41915 | 9.98248 | 3076 ft | 135 kts | 207° |
| 2026-05-01 13:56 | 48.41105 | 9.97506 | 3075 ft | 137 kts | 206° |
| 2026-05-01 13:56 | 48.40252 | 9.96935 | 3079 ft | 136 kts | 190° |
| 2026-05-01 13:56 | 48.39324 | 9.96742 | 3071 ft | 135 kts | 180° |
| 2026-05-01 13:57 | 48.38385 | 9.96596 | 3029 ft | 139 kts | 181° |
| 2026-05-01 13:57 | 48.37755 | 9.96396 | 3024 ft | 140 kts | 187° |
| 2026-05-01 13:57 | 48.36528 | 9.95907 | 3022 ft | 136 kts | 189° |
| 2026-05-01 13:57 | 48.35622 | 9.95481 | 2960 ft | 138 kts | 197° |
| 2026-05-01 13:58 | 48.34735 | 9.94832 | 2904 ft | 141 kts | 202° |
| 2026-05-01 13:58 | 48.33908 | 9.94069 | 2865 ft | 142 kts | 204° |
| 2026-05-01 13:58 | 48.33038 | 9.93360 | 2811 ft | 141 kts | 202° |
| 2026-05-01 13:58 | 48.32165 | 9.92667 | 2719 ft | 146 kts | 201° |
| 2026-05-01 13:59 | 48.31259 | 9.92003 | 2682 ft | 141 kts | 196° |
| 2026-05-01 13:59 | 48.30391 | 9.91416 | 2689 ft | 134 kts | 196° |
| 2026-05-01 13:59 | 48.29528 | 9.90864 | 2687 ft | 137 kts | 197° |
| 2026-05-01 13:59 | 48.28640 | 9.90365 | 2694 ft | 134 kts | 188° |
| 2026-05-01 14:00 | 48.27758 | 9.89947 | 2693 ft | 131 kts | 185° |
| 2026-05-01 14:00 | 48.26865 | 9.89599 | 2694 ft | 134 kts | 185° |
| 2026-05-01 14:00 | 48.25970 | 9.89293 | 2695 ft | 132 kts | 185° |
| 2026-05-01 14:00 | 48.25135 | 9.88856 | 2706 ft | 123 kts | 207° |
| 2026-05-01 14:01 | 48.24631 | 9.87814 | 2705 ft | 129 kts | 245° |
| 2026-05-01 14:01 | 48.24194 | 9.86607 | 2754 ft | 136 kts | 212° |
| 2026-05-01 14:01 | 48.23396 | 9.86189 | 2710 ft | 110 kts | 180° |
| 2026-05-01 14:01 | 48.22667 | 9.86120 | 2474 ft | 108 kts | 167° |
| 2026-05-01 14:02 | 48.21993 | 9.86446 | 2400 ft | 95 kts | 139° |
| 2026-05-01 14:02 | 48.21583 | 9.87133 | 2366 ft | 82 kts | 104° |
| 2026-05-01 14:02 | 48.21521 | 9.87972 | 2256 ft | 81 kts | 85° |
| 2026-05-01 14:02 | 48.21523 | 9.88730 | 2121 ft | 70 kts | 88° |
| 2026-05-01 14:03 | 48.21547 | 9.89415 | 1985 ft | 66 kts | 82° |
| 2026-05-01 14:03 | 48.21683 | 9.90008 | 1930 ft | 61 kts | 33° |
| 2026-05-01 14:03 | 48.22048 | 9.90343 | 1816 ft | 61 kts | 43° |
| 2026-05-01 14:03 | 48.22367 | 9.90639 | 1770 ft | 40 kts | 39° |
| 2026-05-01 14:04 | 48.22517 | 9.90819 | 1765 ft | 22 kts | 38° |
| 2026-05-01 14:04 | 48.22596 | 9.90906 | 1765 ft | 5 kts | 22° |
| 2026-05-01 14:04 | 48.22630 | 9.90863 | 1767 ft | 0 kts | 297° |
| 2026-05-01 14:05 | 48.22643 | 9.90757 | 1770 ft | 16 kts | 245° |
| 2026-05-01 14:05 | 48.22614 | 9.90668 | 1767 ft | 8 kts | 297° |
| 2026-05-01 14:05 | 48.22671 | 9.90506 | 1768 ft | 16 kts | 300° |
| 2026-05-01 14:05 | 48.22702 | 9.90466 | 1770 ft | 2 kts | 247° |
| 2026-05-01 14:06 | 48.22702 | 9.90465 | 1770 ft | 0 kts | 244° |